BIIS

Ísafjörður Airport

Ísafjörður, Iceland
TAF BIIS 221325Z 2214/2223 VRB02KT 9999 FEW050
Issued Valid From Valid To
Sep-22 @ 13:25 UTC
(2 hours ago)
Sep-22 @ 14:00 UTC
(59 minutes ago)
Sep-22 @ 23:00 UTC
(in 8 hours)
to
TAF BIIS 221325Z 2214/2223 VRB02KT 9999 FEW050
Issued Sep-22 @ 13:25 UTC
(2 hours ago)
Valid From Sep-22 @ 14:00 UTC
(59 minutes ago)
Valid To Sep-22 @ 23:00 UTC
(in 8 hours)
-